BTK7550 WAHI-WIHH
Flight info
| Callsign | BTK7550 |
|---|---|
| Flight time | 0h 46m |
| Altitude | 34000 |
| Route | CA W17S IMU |
| Aircraft | A320/M-SDE3FGHIRWY/LB1 |
Departure
| Time | 2026-04-28 06:04 |
|---|---|
| Airport | Yogyakarta International Airport (WAHI) |
Arrival
| Time | 2026-04-28 06:50 |
|---|---|
| Airport | Halim Perdanakusuma International Airport (WIHH) |
| Time | Latitude | Longitude | Altitude | Speed | Heading |
|---|---|---|---|---|---|
| 2026-04-28 05:40 | -7.90109 | 110.05870 | 38 ft | 0 kts | 20° |
| 2026-04-28 05:52 | -7.90111 | 110.05869 | 38 ft | 3 kts | 20° |
| 2026-04-28 05:52 | -7.90131 | 110.05862 | 38 ft | 3 kts | 14° |
| 2026-04-28 05:52 | -7.90150 | 110.05858 | 36 ft | 3 kts | 11° |
| 2026-04-28 05:52 | -7.90170 | 110.05854 | 38 ft | 3 kts | 13° |
| 2026-04-28 05:53 | -7.90189 | 110.05849 | 38 ft | 3 kts | 0° |
| 2026-04-28 05:53 | -7.90206 | 110.05853 | 38 ft | 3 kts | 320° |
| 2026-04-28 05:53 | -7.90218 | 110.05868 | 37 ft | 2 kts | 291° |
| 2026-04-28 05:53 | -7.90220 | 110.05873 | 38 ft | 0 kts | 290° |
| 2026-04-28 05:55 | -7.90216 | 110.05862 | 38 ft | 6 kts | 290° |
| 2026-04-28 05:56 | -7.90203 | 110.05824 | 38 ft | 5 kts | 283° |
| 2026-04-28 05:56 | -7.90215 | 110.05795 | 38 ft | 5 kts | 227° |
| 2026-04-28 05:56 | -7.90257 | 110.05778 | 39 ft | 7 kts | 198° |
| 2026-04-28 05:56 | -7.90302 | 110.05762 | 42 ft | 6 kts | 198° |
| 2026-04-28 05:57 | -7.90339 | 110.05743 | 43 ft | 7 kts | 227° |
| 2026-04-28 05:57 | -7.90341 | 110.05699 | 42 ft | 9 kts | 287° |
| 2026-04-28 05:57 | -7.90319 | 110.05637 | 43 ft | 9 kts | 290° |
| 2026-04-28 05:57 | -7.90298 | 110.05579 | 42 ft | 9 kts | 290° |
| 2026-04-28 05:58 | -7.90276 | 110.05520 | 42 ft | 9 kts | 290° |
| 2026-04-28 05:58 | -7.90255 | 110.05463 | 40 ft | 8 kts | 290° |
| 2026-04-28 05:58 | -7.90237 | 110.05413 | 41 ft | 7 kts | 290° |
| 2026-04-28 05:58 | -7.90220 | 110.05366 | 41 ft | 7 kts | 290° |
| 2026-04-28 05:59 | -7.90204 | 110.05322 | 40 ft | 7 kts | 290° |
| 2026-04-28 05:59 | -7.90185 | 110.05271 | 39 ft | 10 kts | 290° |
| 2026-04-28 05:59 | -7.90153 | 110.05182 | 36 ft | 17 kts | 290° |
| 2026-04-28 05:59 | -7.90107 | 110.05056 | 36 ft | 21 kts | 291° |
| 2026-04-28 06:00 | -7.90052 | 110.04908 | 36 ft | 23 kts | 290° |
| 2026-04-28 06:00 | -7.89994 | 110.04749 | 36 ft | 24 kts | 290° |
| 2026-04-28 06:00 | -7.89937 | 110.04590 | 39 ft | 24 kts | 290° |
| 2026-04-28 06:00 | -7.89884 | 110.04447 | 40 ft | 19 kts | 290° |
| 2026-04-28 06:01 | -7.89852 | 110.04332 | 40 ft | 13 kts | 257° |
| 2026-04-28 06:01 | -7.89922 | 110.04318 | 41 ft | 11 kts | 153° |
| 2026-04-28 06:01 | -7.89981 | 110.04346 | 42 ft | 8 kts | 156° |
| 2026-04-28 06:01 | -7.90023 | 110.04348 | 43 ft | 4 kts | 190° |
| 2026-04-28 06:02 | -7.90037 | 110.04358 | 42 ft | 4 kts | 128° |
| 2026-04-28 06:02 | -7.90044 | 110.04382 | 43 ft | 3 kts | 107° |
| 2026-04-28 06:02 | -7.90047 | 110.04391 | 43 ft | 0 kts | 110° |
| 2026-04-28 06:02 | -7.90047 | 110.04392 | 41 ft | 2 kts | 110° |
| 2026-04-28 06:03 | -7.90097 | 110.04530 | 41 ft | 54 kts | 111° |
| 2026-04-28 06:03 | -7.90307 | 110.05103 | 36 ft | 117 kts | 110° |
| 2026-04-28 06:03 | -7.90648 | 110.06034 | 43 ft | 164 kts | 110° |
| 2026-04-28 06:03 | -7.91102 | 110.07186 | 394 ft | 180 kts | 120° |
| 2026-04-28 06:04 | -7.92058 | 110.07924 | 1138 ft | 178 kts | 166° |
| 2026-04-28 06:04 | -7.93277 | 110.08127 | 1822 ft | 179 kts | 173° |
| 2026-04-28 06:04 | -7.94598 | 110.08257 | 2042 ft | 202 kts | 175° |
| 2026-04-28 06:04 | -7.96076 | 110.08397 | 2282 ft | 222 kts | 174° |
| 2026-04-28 06:05 | -7.97684 | 110.08566 | 2645 ft | 241 kts | 173° |
| 2026-04-28 06:05 | -7.99369 | 110.08762 | 3367 ft | 246 kts | 173° |
| 2026-04-28 06:05 | -8.01082 | 110.08975 | 4155 ft | 250 kts | 172° |
| 2026-04-28 06:05 | -8.02815 | 110.09203 | 4947 ft | 253 kts | 171° |
| 2026-04-28 06:06 | -8.04568 | 110.09444 | 5737 ft | 255 kts | 170° |
| 2026-04-28 06:06 | -8.06400 | 110.09515 | 6190 ft | 276 kts | 189° |
| 2026-04-28 06:06 | -8.08175 | 110.08697 | 6815 ft | 289 kts | 218° |
| 2026-04-28 06:06 | -8.09375 | 110.07060 | 7507 ft | 298 kts | 249° |
| 2026-04-28 06:07 | -8.09613 | 110.04990 | 8182 ft | 302 kts | 281° |
| 2026-04-28 06:07 | -8.08771 | 110.03065 | 8817 ft | 304 kts | 313° |
| 2026-04-28 06:07 | -8.07082 | 110.01843 | 9443 ft | 301 kts | 343° |
| 2026-04-28 06:07 | -8.05061 | 110.01284 | 10123 ft | 302 kts | 348° |
| 2026-04-28 06:08 | -8.03657 | 110.00921 | 10350 ft | 315 kts | 348° |
| 2026-04-28 06:08 | -8.00712 | 110.00148 | 10540 ft | 345 kts | 348° |
| 2026-04-28 06:08 | -7.98349 | 109.99515 | 10911 ft | 356 kts | 347° |
| 2026-04-28 06:08 | -7.96725 | 109.99079 | 11309 ft | 359 kts | 347° |
| 2026-04-28 06:09 | -7.93509 | 109.98209 | 12176 ft | 363 kts | 347° |
| 2026-04-28 06:09 | -7.91862 | 109.97760 | 12620 ft | 364 kts | 347° |
| 2026-04-28 06:09 | -7.89408 | 109.97067 | 13249 ft | 368 kts | 343° |
| 2026-04-28 06:09 | -7.87008 | 109.96142 | 13855 ft | 371 kts | 341° |
| 2026-04-28 06:10 | -7.84588 | 109.95193 | 14464 ft | 374 kts | 341° |
| 2026-04-28 06:10 | -7.82153 | 109.94242 | 15054 ft | 377 kts | 341° |
| 2026-04-28 06:10 | -7.79699 | 109.93286 | 15608 ft | 380 kts | 341° |
| 2026-04-28 06:10 | -7.77222 | 109.92322 | 16157 ft | 383 kts | 341° |
| 2026-04-28 06:11 | -7.74731 | 109.91350 | 16692 ft | 386 kts | 341° |
| 2026-04-28 06:11 | -7.72217 | 109.90368 | 17215 ft | 388 kts | 341° |
| 2026-04-28 06:11 | -7.69689 | 109.89378 | 17729 ft | 391 kts | 341° |
| 2026-04-28 06:11 | -7.67150 | 109.88386 | 18246 ft | 392 kts | 340° |
| 2026-04-28 06:12 | -7.64630 | 109.87323 | 18745 ft | 394 kts | 334° |
| 2026-04-28 06:12 | -7.62223 | 109.85974 | 19158 ft | 398 kts | 332° |
| 2026-04-28 06:12 | -7.59800 | 109.84599 | 19572 ft | 401 kts | 332° |
| 2026-04-28 06:12 | -7.57387 | 109.83233 | 19980 ft | 405 kts | 332° |
| 2026-04-28 06:13 | -7.54923 | 109.81842 | 20370 ft | 408 kts | 332° |
| 2026-04-28 06:13 | -7.52435 | 109.80437 | 20759 ft | 411 kts | 332° |
| 2026-04-28 06:13 | -7.49932 | 109.79019 | 21118 ft | 415 kts | 332° |
| 2026-04-28 06:13 | -7.47452 | 109.77511 | 21462 ft | 419 kts | 325° |
| 2026-04-28 06:14 | -7.45237 | 109.75597 | 21803 ft | 423 kts | 314° |
| 2026-04-28 06:14 | -7.43384 | 109.73273 | 22119 ft | 427 kts | 303° |
| 2026-04-28 06:14 | -7.41806 | 109.70728 | 22463 ft | 430 kts | 302° |
| 2026-04-28 06:14 | -7.40213 | 109.68167 | 22792 ft | 433 kts | 303° |
| 2026-04-28 06:15 | -7.38598 | 109.65594 | 23121 ft | 435 kts | 303° |
| 2026-04-28 06:15 | -7.36974 | 109.63010 | 23432 ft | 438 kts | 303° |
| 2026-04-28 06:15 | -7.35338 | 109.60407 | 23743 ft | 441 kts | 303° |
| 2026-04-28 06:15 | -7.33694 | 109.57792 | 24044 ft | 443 kts | 302° |
| 2026-04-28 06:16 | -7.32047 | 109.55162 | 24347 ft | 446 kts | 302° |
| 2026-04-28 06:16 | -7.30392 | 109.52514 | 24658 ft | 447 kts | 302° |
| 2026-04-28 06:16 | -7.28732 | 109.49856 | 24964 ft | 449 kts | 302° |
| 2026-04-28 06:16 | -7.27067 | 109.47191 | 25260 ft | 451 kts | 302° |
| 2026-04-28 06:17 | -7.25391 | 109.44512 | 25572 ft | 452 kts | 302° |
| 2026-04-28 06:17 | -7.23710 | 109.41832 | 25864 ft | 454 kts | 302° |
| 2026-04-28 06:17 | -7.22019 | 109.39137 | 26149 ft | 455 kts | 302° |
| 2026-04-28 06:18 | -7.18630 | 109.33727 | 26714 ft | 458 kts | 302° |
| 2026-04-28 06:18 | -7.16929 | 109.31012 | 26979 ft | 460 kts | 302° |
| 2026-04-28 06:18 | -7.15219 | 109.28281 | 27256 ft | 461 kts | 302° |
| 2026-04-28 06:18 | -7.13505 | 109.25547 | 27519 ft | 462 kts | 302° |
| 2026-04-28 06:19 | -7.11787 | 109.22806 | 27769 ft | 464 kts | 302° |
| 2026-04-28 06:19 | -7.10062 | 109.20051 | 28015 ft | 465 kts | 302° |
| 2026-04-28 06:19 | -7.08333 | 109.17293 | 28252 ft | 467 kts | 302° |
| 2026-04-28 06:19 | -7.06594 | 109.14525 | 28501 ft | 468 kts | 302° |
| 2026-04-28 06:20 | -7.04851 | 109.11753 | 28743 ft | 469 kts | 302° |
| 2026-04-28 06:20 | -7.03104 | 109.08970 | 28971 ft | 470 kts | 302° |
| 2026-04-28 06:20 | -7.01355 | 109.06182 | 29182 ft | 472 kts | 302° |
| 2026-04-28 06:20 | -6.99598 | 109.03382 | 29412 ft | 473 kts | 302° |
| 2026-04-28 06:21 | -6.97837 | 109.00573 | 29638 ft | 475 kts | 302° |
| 2026-04-28 06:21 | -6.96076 | 108.97762 | 29852 ft | 476 kts | 302° |
| 2026-04-28 06:21 | -6.94310 | 108.94948 | 30081 ft | 476 kts | 302° |
| 2026-04-28 06:21 | -6.92541 | 108.92131 | 30404 ft | 475 kts | 302° |
| 2026-04-28 06:22 | -6.90774 | 108.89319 | 30703 ft | 475 kts | 302° |
| 2026-04-28 06:22 | -6.89011 | 108.86518 | 31004 ft | 474 kts | 303° |
| 2026-04-28 06:22 | -6.87248 | 108.83721 | 31294 ft | 473 kts | 303° |
| 2026-04-28 06:22 | -6.85491 | 108.80931 | 31596 ft | 472 kts | 303° |
| 2026-04-28 06:23 | -6.83734 | 108.78138 | 31886 ft | 472 kts | 303° |
| 2026-04-28 06:23 | -6.81983 | 108.75351 | 32182 ft | 471 kts | 303° |
| 2026-04-28 06:23 | -6.80259 | 108.72603 | 32487 ft | 470 kts | 303° |
| 2026-04-28 06:23 | -6.78513 | 108.69825 | 32760 ft | 469 kts | 303° |
| 2026-04-28 06:24 | -6.76769 | 108.67053 | 33048 ft | 469 kts | 303° |
| 2026-04-28 06:24 | -6.75031 | 108.64288 | 33340 ft | 468 kts | 303° |
| 2026-04-28 06:24 | -6.73289 | 108.61519 | 33635 ft | 467 kts | 303° |
| 2026-04-28 06:24 | -6.71492 | 108.58808 | 33826 ft | 466 kts | 309° |
| 2026-04-28 06:25 | -6.69336 | 108.56390 | 33862 ft | 463 kts | 318° |
| 2026-04-28 06:25 | -6.64057 | 108.52755 | 33839 ft | 460 kts | 332° |
| 2026-04-28 06:26 | -6.58413 | 108.49616 | 33841 ft | 460 kts | 332° |
| 2026-04-28 06:26 | -6.55647 | 108.48064 | 33634 ft | 461 kts | 332° |
| 2026-04-28 06:26 | -6.52815 | 108.46468 | 33380 ft | 461 kts | 332° |
| 2026-04-28 06:26 | -6.50008 | 108.44884 | 33131 ft | 462 kts | 332° |
| 2026-04-28 06:27 | -6.47206 | 108.43307 | 32879 ft | 463 kts | 332° |
| 2026-04-28 06:27 | -6.44429 | 108.41748 | 32635 ft | 463 kts | 332° |
| 2026-04-28 06:27 | -6.41574 | 108.40147 | 32380 ft | 464 kts | 332° |
| 2026-04-28 06:27 | -6.38783 | 108.38583 | 32136 ft | 466 kts | 332° |
| 2026-04-28 06:28 | -6.35978 | 108.36951 | 31883 ft | 467 kts | 327° |
| 2026-04-28 06:28 | -6.33410 | 108.34880 | 31626 ft | 469 kts | 316° |
| 2026-04-28 06:28 | -6.31290 | 108.32389 | 31380 ft | 471 kts | 305° |
| 2026-04-28 06:28 | -6.29616 | 108.29552 | 30565 ft | 476 kts | 296° |
| 2026-04-28 06:29 | -6.28528 | 108.26398 | 29716 ft | 478 kts | 283° |
| 2026-04-28 06:29 | -6.27788 | 108.23211 | 29117 ft | 472 kts | 284° |
| 2026-04-28 06:29 | -6.27011 | 108.20020 | 28420 ft | 468 kts | 284° |
| 2026-04-28 06:29 | -6.26202 | 108.16820 | 27750 ft | 465 kts | 284° |
| 2026-04-28 06:30 | -6.25405 | 108.13725 | 27093 ft | 462 kts | 284° |
| 2026-04-28 06:30 | -6.24603 | 108.10613 | 26436 ft | 458 kts | 284° |
| 2026-04-28 06:30 | -6.23815 | 108.07526 | 25786 ft | 455 kts | 284° |
| 2026-04-28 06:30 | -6.23036 | 108.04447 | 25144 ft | 452 kts | 283° |
| 2026-04-28 06:31 | -6.22270 | 108.01407 | 24513 ft | 448 kts | 283° |
| 2026-04-28 06:31 | -6.21533 | 107.98375 | 23903 ft | 443 kts | 279° |
| 2026-04-28 06:31 | -6.21199 | 107.95326 | 23299 ft | 437 kts | 270° |
| 2026-04-28 06:31 | -6.21148 | 107.92295 | 22764 ft | 431 kts | 270° |
| 2026-04-28 06:32 | -6.21086 | 107.89300 | 22211 ft | 426 kts | 270° |
| 2026-04-28 06:32 | -6.21016 | 107.86341 | 21728 ft | 421 kts | 270° |
| 2026-04-28 06:32 | -6.20942 | 107.83422 | 21236 ft | 416 kts | 270° |
| 2026-04-28 06:32 | -6.20871 | 107.80530 | 20752 ft | 411 kts | 271° |
| 2026-04-28 06:33 | -6.20804 | 107.77683 | 20271 ft | 406 kts | 270° |
| 2026-04-28 06:33 | -6.20738 | 107.74862 | 19781 ft | 401 kts | 271° |
| 2026-04-28 06:33 | -6.20674 | 107.72075 | 19293 ft | 397 kts | 271° |
| 2026-04-28 06:33 | -6.20615 | 107.69308 | 18791 ft | 394 kts | 271° |
| 2026-04-28 06:34 | -6.20554 | 107.66569 | 18299 ft | 391 kts | 271° |
| 2026-04-28 06:34 | -6.20493 | 107.63845 | 17792 ft | 388 kts | 271° |
| 2026-04-28 06:34 | -6.20432 | 107.61143 | 17280 ft | 386 kts | 271° |
| 2026-04-28 06:34 | -6.20367 | 107.58452 | 16776 ft | 384 kts | 271° |
| 2026-04-28 06:35 | -6.20299 | 107.55779 | 16269 ft | 382 kts | 271° |
| 2026-04-28 06:35 | -6.20229 | 107.53116 | 15765 ft | 381 kts | 271° |
| 2026-04-28 06:35 | -6.20159 | 107.50464 | 15258 ft | 379 kts | 271° |
| 2026-04-28 06:35 | -6.20091 | 107.47821 | 14754 ft | 377 kts | 271° |
| 2026-04-28 06:36 | -6.20022 | 107.45191 | 14253 ft | 376 kts | 271° |
| 2026-04-28 06:36 | -6.19955 | 107.42569 | 13743 ft | 374 kts | 271° |
| 2026-04-28 06:36 | -6.19889 | 107.39964 | 13236 ft | 372 kts | 271° |
| 2026-04-28 06:36 | -6.19823 | 107.37374 | 12723 ft | 370 kts | 271° |
| 2026-04-28 06:37 | -6.19757 | 107.34808 | 12359 ft | 364 kts | 271° |
| 2026-04-28 06:37 | -6.19694 | 107.32275 | 11867 ft | 361 kts | 269° |
| 2026-04-28 06:37 | -6.19949 | 107.29781 | 11345 ft | 359 kts | 256° |
| 2026-04-28 06:37 | -6.20759 | 107.27422 | 10827 ft | 356 kts | 243° |
| 2026-04-28 06:38 | -6.22021 | 107.25306 | 10474 ft | 348 kts | 235° |
| 2026-04-28 06:38 | -6.23311 | 107.23301 | 10347 ft | 336 kts | 236° |
| 2026-04-28 06:38 | -6.24544 | 107.21359 | 10220 ft | 324 kts | 236° |
| 2026-04-28 06:38 | -6.25729 | 107.19478 | 10094 ft | 313 kts | 236° |
| 2026-04-28 06:39 | -6.26863 | 107.17669 | 9869 ft | 306 kts | 236° |
| 2026-04-28 06:39 | -6.28000 | 107.15855 | 9486 ft | 308 kts | 237° |
| 2026-04-28 06:39 | -6.29154 | 107.14018 | 9083 ft | 307 kts | 237° |
| 2026-04-28 06:39 | -6.30278 | 107.12222 | 8726 ft | 305 kts | 237° |
| 2026-04-28 06:40 | -6.31384 | 107.10423 | 8340 ft | 301 kts | 237° |
| 2026-04-28 06:40 | -6.32475 | 107.08639 | 7659 ft | 298 kts | 237° |
| 2026-04-28 06:40 | -6.33570 | 107.06850 | 7080 ft | 293 kts | 237° |
| 2026-04-28 06:40 | -6.34630 | 107.05120 | 6608 ft | 290 kts | 237° |
| 2026-04-28 06:41 | -6.35682 | 107.03401 | 6153 ft | 287 kts | 238° |
| 2026-04-28 06:41 | -6.36726 | 107.01697 | 5700 ft | 287 kts | 237° |
| 2026-04-28 06:41 | -6.37771 | 106.99995 | 5255 ft | 286 kts | 237° |
| 2026-04-28 06:41 | -6.38795 | 106.98328 | 5115 ft | 274 kts | 238° |
| 2026-04-28 06:42 | -6.39775 | 106.96729 | 4939 ft | 264 kts | 238° |
| 2026-04-28 06:42 | -6.40494 | 106.95078 | 4900 ft | 256 kts | 254° |
| 2026-04-28 06:42 | -6.40855 | 106.93306 | 4844 ft | 259 kts | 259° |
| 2026-04-28 06:42 | -6.41180 | 106.91553 | 4751 ft | 260 kts | 259° |
| 2026-04-28 06:43 | -6.41512 | 106.89769 | 4656 ft | 259 kts | 259° |
| 2026-04-28 06:43 | -6.41842 | 106.87991 | 4557 ft | 259 kts | 259° |
| 2026-04-28 06:43 | -6.42173 | 106.86212 | 4429 ft | 258 kts | 259° |
| 2026-04-28 06:43 | -6.42505 | 106.84441 | 4318 ft | 257 kts | 259° |
| 2026-04-28 06:44 | -6.42827 | 106.82714 | 4215 ft | 245 kts | 259° |
| 2026-04-28 06:44 | -6.43127 | 106.81048 | 4112 ft | 241 kts | 263° |
| 2026-04-28 06:44 | -6.42943 | 106.79405 | 4012 ft | 238 kts | 295° |
| 2026-04-28 06:44 | -6.41947 | 106.78107 | 3774 ft | 237 kts | 327° |
| 2026-04-28 06:45 | -6.40489 | 106.77372 | 3499 ft | 234 kts | 337° |
| 2026-04-28 06:45 | -6.39003 | 106.76708 | 3209 ft | 233 kts | 337° |
| 2026-04-28 06:45 | -6.37526 | 106.76046 | 2923 ft | 232 kts | 337° |
| 2026-04-28 06:45 | -6.36066 | 106.75392 | 2682 ft | 224 kts | 337° |
| 2026-04-28 06:46 | -6.34682 | 106.74769 | 2615 ft | 214 kts | 337° |
| 2026-04-28 06:46 | -6.33309 | 106.74471 | 2531 ft | 191 kts | 12° |
| 2026-04-28 06:46 | -6.32234 | 106.75053 | 2407 ft | 170 kts | 52° |
| 2026-04-28 06:46 | -6.31769 | 106.76072 | 2276 ft | 154 kts | 75° |
| 2026-04-28 06:47 | -6.31458 | 106.77130 | 2113 ft | 159 kts | 75° |
| 2026-04-28 06:47 | -6.31146 | 106.78194 | 1948 ft | 159 kts | 76° |
| 2026-04-28 06:47 | -6.30830 | 106.79266 | 1790 ft | 161 kts | 77° |
| 2026-04-28 06:47 | -6.30511 | 106.80353 | 1636 ft | 163 kts | 76° |
| 2026-04-28 06:48 | -6.30171 | 106.81447 | 1475 ft | 164 kts | 65° |
| 2026-04-28 06:48 | -6.29726 | 106.82471 | 1267 ft | 155 kts | 62° |
| 2026-04-28 06:48 | -6.29285 | 106.83433 | 1057 ft | 149 kts | 62° |
| 2026-04-28 06:48 | -6.28846 | 106.84369 | 838 ft | 147 kts | 61° |
| 2026-04-28 06:49 | -6.28423 | 106.85300 | 657 ft | 146 kts | 62° |
| 2026-04-28 06:49 | -6.27996 | 106.86224 | 503 ft | 146 kts | 62° |
| 2026-04-28 06:49 | -6.27574 | 106.87147 | 334 ft | 146 kts | 64° |
| 2026-04-28 06:49 | -6.27150 | 106.88072 | 133 ft | 144 kts | 63° |
| 2026-04-28 06:50 | -6.26872 | 106.88681 | 98 ft | 136 kts | 62° |
| 2026-04-28 06:50 | -6.26505 | 106.89449 | 95 ft | 39 kts | 63° |
| 2026-04-28 06:50 | -6.26460 | 106.89567 | 95 ft | 20 kts | 93° |
| 2026-04-28 06:50 | -6.26546 | 106.89633 | 96 ft | 15 kts | 155° |
| 2026-04-28 06:51 | -6.26613 | 106.89631 | 96 ft | 9 kts | 236° |
| 2026-04-28 06:51 | -6.26636 | 106.89579 | 95 ft | 7 kts | 246° |
| 2026-04-28 06:51 | -6.26655 | 106.89536 | 95 ft | 6 kts | 244° |
| 2026-04-28 06:51 | -6.26677 | 106.89489 | 95 ft | 9 kts | 245° |
| 2026-04-28 06:52 | -6.26700 | 106.89440 | 95 ft | 7 kts | 245° |
| 2026-04-28 06:52 | -6.26718 | 106.89401 | 96 ft | 6 kts | 245° |
| 2026-04-28 06:52 | -6.26734 | 106.89366 | 95 ft | 7 kts | 247° |
| 2026-04-28 06:52 | -6.26715 | 106.89323 | 95 ft | 7 kts | 337° |
| 2026-04-28 06:53 | -6.26685 | 106.89311 | 95 ft | 0 kts | 335° |
| 2026-04-28 06:54 | -6.26667 | 106.89303 | 98 ft | 8 kts | 335° |
| 2026-04-28 06:54 | -6.26590 | 106.89258 | 96 ft | 15 kts | 312° |
| 2026-04-28 06:54 | -6.26547 | 106.89156 | 95 ft | 17 kts | 290° |
| 2026-04-28 06:55 | -6.26502 | 106.89040 | 97 ft | 13 kts | 290° |
| 2026-04-28 06:55 | -6.26496 | 106.89001 | 95 ft | 2 kts | 268° |
| 2026-04-28 06:55 | -6.26510 | 106.88960 | 95 ft | 9 kts | 244° |
| 2026-04-28 06:55 | -6.26528 | 106.88921 | 95 ft | 5 kts | 244° |
| 2026-04-28 06:56 | -6.26541 | 106.88895 | 95 ft | 5 kts | 245° |
| 2026-04-28 06:56 | -6.26569 | 106.88831 | 97 ft | 15 kts | 245° |
| 2026-04-28 06:56 | -6.26616 | 106.88730 | 97 ft | 13 kts | 245° |
| 2026-04-28 06:56 | -6.26650 | 106.88655 | 94 ft | 11 kts | 246° |
| 2026-04-28 06:57 | -6.26625 | 106.88607 | 95 ft | 6 kts | 331° |
| 2026-04-28 06:57 | -6.26621 | 106.88606 | 95 ft | 1 kts | 340° |
| 2026-04-28 06:57 | -6.26616 | 106.88604 | 95 ft | 0 kts | 339° |
| 2026-04-28 06:57 | -6.26613 | 106.88603 | 95 ft | 0 kts | 338° |